createdAt,value
2023-04-06T00:02:11.785Z,28.20
2023-04-06T00:04:41.442Z,26.60
2023-04-06T00:07:09.853Z,27.83
2023-04-06T00:09:38.116Z,30.67
2023-04-06T00:12:06.563Z,27.47
2023-04-06T00:14:34.806Z,28.53
2023-04-06T00:17:03.088Z,30.17
2023-04-06T00:19:31.447Z,27.27
2023-04-06T00:22:03.196Z,24.63
2023-04-06T00:24:31.477Z,26.53
2023-04-06T00:26:59.715Z,25.80
2023-04-06T00:29:27.998Z,23.73
2023-04-06T00:31:56.390Z,21.30
2023-04-06T00:34:24.666Z,20.40
2023-04-06T00:36:52.947Z,21.17
2023-04-06T00:39:22.538Z,25.33
2023-04-06T00:41:53.348Z,22.87
2023-04-06T00:44:21.632Z,18.87
2023-04-06T00:46:49.971Z,22.47
2023-04-06T00:49:18.232Z,22.17
2023-04-06T00:51:46.498Z,18.10
2023-04-06T00:54:14.713Z,18.73
2023-04-06T00:56:45.670Z,19.53
2023-04-06T00:59:14.063Z,19.10
2023-04-06T01:01:42.346Z,23.90
2023-04-06T01:04:10.697Z,17.37
2023-04-06T01:06:38.941Z,17.73
2023-04-06T01:09:07.441Z,20.03
2023-04-06T01:11:35.924Z,16.47
2023-04-06T01:14:05.990Z,16.20
2023-04-06T01:16:34.311Z,16.30
2023-04-06T01:19:02.632Z,17.43
2023-04-06T01:21:31.013Z,15.57
2023-04-06T01:24:00.695Z,13.73
2023-04-06T01:26:30.276Z,15.80
2023-04-06T01:28:58.541Z,16.87
2023-04-06T01:31:27.322Z,16.03
2023-04-06T01:33:55.988Z,15.00
2023-04-06T01:36:24.382Z,17.47
2023-04-06T01:38:52.743Z,17.47
2023-04-06T01:41:22.423Z,15.63
2023-04-06T01:43:51.070Z,17.07
2023-04-06T01:46:19.281Z,17.27
2023-04-06T01:48:47.851Z,18.13
2023-04-06T01:51:16.160Z,16.73
2023-04-06T01:53:44.381Z,15.13
2023-04-06T01:56:12.578Z,17.97
2023-04-06T01:58:42.221Z,15.13
2023-04-06T02:01:10.590Z,15.67
2023-04-06T02:03:38.830Z,15.30
2023-04-06T02:06:07.216Z,16.80
2023-04-06T02:08:35.455Z,17.97
2023-04-06T02:11:03.736Z,15.27
2023-04-06T02:13:32.036Z,20.97
2023-04-06T02:16:03.467Z,19.13
2023-04-06T02:18:32.619Z,18.87
2023-04-06T02:21:01.634Z,21.20
2023-04-06T02:23:29.913Z,18.93
2023-04-06T02:25:58.140Z,18.13
2023-04-06T02:28:26.379Z,18.23
2023-04-06T02:30:54.603Z,19.53
2023-04-06T02:33:24.154Z,18.93
2023-04-06T02:35:52.394Z,19.07
2023-04-06T02:38:20.841Z,19.93
2023-04-06T02:40:49.140Z,17.50
2023-04-06T02:43:18.051Z,18.33
2023-04-06T02:45:46.811Z,18.53
2023-04-06T02:48:15.113Z,19.53
2023-04-06T02:50:44.797Z,21.07
2023-04-06T02:53:13.012Z,19.77
2023-04-06T02:55:41.226Z,17.90
2023-04-06T02:58:09.596Z,19.80
2023-04-06T03:00:38.083Z,20.00
2023-04-06T03:03:06.489Z,20.30
2023-04-06T03:05:34.797Z,18.47
2023-04-06T03:08:04.437Z,20.27
2023-04-06T03:10:32.649Z,18.87
2023-04-06T03:13:00.964Z,19.60
2023-04-06T03:15:29.264Z,19.60
2023-04-06T03:18:00.038Z,22.10
2023-04-06T03:20:29.045Z,18.63
2023-04-06T03:22:57.355Z,19.47
2023-04-06T03:25:27.184Z,21.20
2023-04-06T03:27:55.473Z,23.07
2023-04-06T03:30:23.776Z,20.37
2023-04-06T03:32:52.003Z,19.40
2023-04-06T03:35:20.311Z,20.70
2023-04-06T03:37:48.590Z,19.77
2023-04-06T03:40:16.928Z,20.93
2023-04-06T03:42:46.497Z,21.43
2023-04-06T03:45:14.983Z,22.00
2023-04-06T03:47:43.294Z,21.97
2023-04-06T03:50:11.998Z,20.67
2023-04-06T03:52:40.259Z,22.80
2023-04-06T03:55:09.338Z,20.20
2023-04-06T03:57:38.490Z,20.37
2023-04-06T04:00:08.926Z,19.23
2023-04-06T04:02:37.260Z,20.30
2023-04-06T04:05:06.009Z,21.03
2023-04-06T04:07:34.308Z,19.80
2023-04-06T04:10:02.515Z,20.03
2023-04-06T04:12:30.707Z,21.27
2023-04-06T04:14:58.960Z,19.93
2023-04-06T04:17:28.620Z,21.23
2023-04-06T04:19:56.902Z,21.43
2023-04-06T04:22:25.085Z,20.37
2023-04-06T04:24:53.390Z,22.57
2023-04-06T04:27:21.728Z,20.30
2023-04-06T04:29:51.203Z,22.70
2023-04-06T04:32:21.730Z,23.43
2023-04-06T04:34:51.399Z,22.43
2023-04-06T04:37:19.656Z,24.13
2023-04-06T04:39:47.916Z,26.10
2023-04-06T04:42:16.597Z,24.57
2023-04-06T04:44:44.843Z,24.17
2023-04-06T04:47:13.096Z,25.03
2023-04-06T04:49:41.277Z,25.90
2023-04-06T04:52:10.834Z,27.67
2023-04-06T04:54:39.736Z,28.27
2023-04-06T04:57:08.048Z,25.97
2023-04-06T04:59:36.835Z,26.60
2023-04-06T05:02:05.128Z,24.23
2023-04-06T05:04:33.385Z,25.10
2023-04-06T05:07:05.260Z,29.10
2023-04-06T05:09:34.931Z,27.10
2023-04-06T05:12:03.164Z,28.60
2023-04-06T05:14:31.388Z,30.27
2023-04-06T05:16:59.666Z,29.40
2023-04-06T05:19:27.873Z,29.30
2023-04-06T05:21:56.245Z,29.80
2023-04-06T05:24:24.460Z,30.57
2023-04-06T05:26:54.125Z,30.60
2023-04-06T05:29:22.379Z,29.97
2023-04-06T05:31:50.645Z,32.73
2023-04-06T05:34:18.849Z,32.97
2023-04-06T05:36:47.211Z,32.03
2023-04-06T05:39:15.721Z,33.83
2023-04-06T05:41:43.969Z,38.23
2023-04-06T05:44:13.555Z,36.13
2023-04-06T05:46:42.119Z,36.93
2023-04-06T05:49:10.656Z,34.60
2023-04-06T05:51:39.138Z,38.23
2023-04-06T05:54:07.500Z,40.00
2023-04-06T05:56:35.727Z,34.67
2023-04-06T05:59:03.932Z,34.07
2023-04-06T06:01:33.632Z,35.23
2023-04-06T06:04:02.984Z,37.40
2023-04-06T06:06:31.646Z,40.33
2023-04-06T06:09:01.749Z,34.77
2023-04-06T06:11:30.060Z,37.87
2023-04-06T06:13:58.273Z,39.20
2023-04-06T06:16:26.497Z,36.07
2023-04-06T06:18:56.242Z,33.83
2023-04-06T06:21:24.468Z,40.17
2023-04-06T06:23:54.941Z,36.43
2023-04-06T06:26:23.448Z,35.13
2023-04-06T06:28:51.719Z,38.90
2023-04-06T06:31:21.497Z,37.87
2023-04-06T06:33:51.260Z,37.40
2023-04-06T06:36:20.873Z,36.27
2023-04-06T06:38:49.127Z,34.87
2023-04-06T06:41:17.652Z,37.10
2023-04-06T06:43:45.875Z,40.00
2023-04-06T06:46:14.234Z,34.37
2023-04-06T06:48:42.518Z,37.30
2023-04-06T06:51:12.660Z,39.50
2023-04-06T06:53:42.265Z,36.33
2023-04-06T06:56:10.582Z,33.33
2023-04-06T06:58:38.881Z,37.23
2023-04-06T07:01:07.332Z,37.33
2023-04-06T07:03:35.643Z,40.23
2023-04-06T07:06:03.888Z,37.33
2023-04-06T07:08:32.087Z,34.43
2023-04-06T07:11:01.684Z,36.20
2023-04-06T07:13:30.076Z,31.37
2023-04-06T07:15:58.333Z,29.93
2023-04-06T07:18:26.570Z,30.27
2023-04-06T07:20:54.816Z,27.23
2023-04-06T07:23:23.178Z,27.47
2023-04-06T07:25:51.940Z,26.30
2023-04-06T07:28:21.758Z,24.43
2023-04-06T07:30:49.980Z,21.77
2023-04-06T07:33:18.235Z,17.87
2023-04-06T07:35:46.665Z,18.33
2023-04-06T07:38:14.977Z,18.33
2023-04-06T07:40:43.214Z,19.20
2023-04-06T07:43:11.422Z,17.53
2023-04-06T07:45:41.085Z,16.40
2023-04-06T07:48:09.411Z,16.70
2023-04-06T07:50:37.617Z,16.87
2023-04-06T07:53:05.870Z,22.67
2023-04-06T07:55:34.061Z,21.93
2023-04-06T07:58:02.372Z,19.77
2023-04-06T08:00:30.649Z,23.30
2023-04-06T08:03:00.406Z,22.00
2023-04-06T08:05:28.882Z,18.63
2023-04-06T08:07:57.134Z,20.60
2023-04-06T08:10:25.362Z,19.17
2023-04-06T08:12:53.558Z,19.07
2023-04-06T08:15:21.905Z,19.67
2023-04-06T08:17:50.197Z,20.47
2023-04-06T08:20:19.941Z,20.33
2023-04-06T08:22:48.261Z,19.73
2023-04-06T08:25:16.558Z,21.67
2023-04-06T08:27:44.843Z,19.33
2023-04-06T08:30:13.222Z,18.67
2023-04-06T08:32:42.176Z,19.67
2023-04-06T08:35:10.948Z,21.47
2023-04-06T08:37:40.633Z,18.27
2023-04-06T08:40:09.537Z,12.27
2023-04-06T08:42:41.936Z,15.07
2023-04-06T08:45:11.254Z,13.10
2023-04-06T08:47:39.664Z,14.33
2023-04-06T08:50:08.838Z,14.03
2023-04-06T08:52:37.139Z,11.37
2023-04-06T08:55:07.333Z,10.10
2023-04-06T08:57:36.221Z,13.83
2023-04-06T09:00:04.532Z,11.10
2023-04-06T09:02:32.906Z,8.50
2023-04-06T09:05:03.376Z,10.70
2023-04-06T09:07:32.045Z,7.93
2023-04-06T09:10:00.309Z,10.47
2023-04-06T09:12:30.696Z,7.60
2023-04-06T09:14:59.531Z,8.63
2023-04-06T09:17:28.715Z,8.00
2023-04-06T09:19:57.107Z,7.60
2023-04-06T09:22:27.988Z,7.30
2023-04-06T09:24:56.612Z,10.57
2023-04-06T09:27:34.342Z,9.13
2023-04-06T09:30:06.383Z,9.93
2023-04-06T09:32:34.689Z,9.40
2023-04-06T09:35:09.436Z,9.20
2023-04-06T09:37:37.713Z,11.70
2023-04-06T09:40:06.872Z,10.43
2023-04-06T09:42:36.868Z,9.67
2023-04-06T09:45:05.765Z,9.57
2023-04-06T09:47:34.941Z,9.87
2023-04-06T09:50:03.479Z,10.67
2023-04-06T09:52:34.342Z,10.33
2023-04-06T09:55:05.011Z,11.97
2023-04-06T09:57:35.247Z,12.20
2023-04-06T10:00:10.406Z,12.70
2023-04-06T10:02:43.873Z,10.10
2023-04-06T10:05:13.322Z,10.60
2023-04-06T10:07:53.156Z,10.47
2023-04-06T10:10:27.814Z,10.83
2023-04-06T10:12:56.549Z,12.80
2023-04-06T10:15:26.684Z,10.10
2023-04-06T10:17:54.963Z,10.43
2023-04-06T10:20:25.063Z,10.43
2023-04-06T10:22:57.838Z,11.00
2023-04-06T10:25:29.867Z,10.13
2023-04-06T10:28:04.676Z,10.20
2023-04-06T10:30:35.109Z,11.00
2023-04-06T10:33:03.705Z,11.13
2023-04-06T10:35:41.200Z,9.97
2023-04-06T10:38:09.643Z,9.47
2023-04-06T10:40:39.311Z,11.27
2023-04-06T10:43:11.918Z,9.80
2023-04-06T10:45:44.127Z,9.83
2023-04-06T10:48:16.599Z,12.10
2023-04-06T10:50:46.261Z,10.87
2023-04-06T10:53:14.497Z,10.50
2023-04-06T10:55:42.979Z,11.63
2023-04-06T10:58:11.223Z,11.93
2023-04-06T11:00:50.669Z,12.23
2023-04-06T11:03:20.950Z,11.73
2023-04-06T11:05:49.618Z,11.97
2023-04-06T11:08:27.938Z,13.43
2023-04-06T11:11:07.139Z,10.90
2023-04-06T11:13:42.960Z,11.57
2023-04-06T11:16:15.384Z,12.73
2023-04-06T11:18:51.784Z,13.23
2023-04-06T11:21:20.313Z,12.93
2023-04-06T11:23:48.608Z,12.70
2023-04-06T11:26:17.030Z,13.83
2023-04-06T11:28:45.573Z,14.30
2023-04-06T11:31:14.109Z,14.47
2023-04-06T11:33:42.381Z,15.77
2023-04-06T11:36:13.126Z,13.90
2023-04-06T11:38:43.315Z,15.23
2023-04-06T11:41:11.593Z,14.87
2023-04-06T11:43:39.834Z,17.77
2023-04-06T11:46:10.115Z,17.00
2023-04-06T11:48:47.098Z,16.93
2023-04-06T11:51:24.616Z,16.90
2023-04-06T11:53:52.877Z,17.27
2023-04-06T11:56:30.791Z,16.93
2023-04-06T11:59:00.717Z,21.60
2023-04-06T12:01:29.924Z,22.23
2023-04-06T12:03:59.488Z,21.13
2023-04-06T12:06:29.298Z,24.00
2023-04-06T12:08:57.598Z,21.07
2023-04-06T12:11:26.078Z,24.90
2023-04-06T12:13:54.273Z,25.47
2023-04-06T12:16:22.607Z,23.43
2023-04-06T12:18:51.253Z,25.57
2023-04-06T12:21:19.494Z,23.20
2023-04-06T12:23:49.173Z,20.27
2023-04-06T12:26:17.603Z,26.03
2023-04-06T12:28:46.349Z,30.80
2023-04-06T12:31:17.822Z,34.63
2023-04-06T12:33:47.621Z,35.77
2023-04-06T12:36:16.497Z,27.43
2023-04-06T12:38:46.697Z,26.83
2023-04-06T12:41:16.916Z,31.50
2023-04-06T12:43:45.513Z,35.27
2023-04-06T12:46:13.734Z,35.17
2023-04-06T12:48:42.156Z,23.50
2023-04-06T12:51:10.529Z,25.73
2023-04-06T12:53:39.161Z,31.90
2023-04-06T12:56:15.538Z,30.93
2023-04-06T12:58:45.221Z,46.23
2023-04-06T13:01:13.903Z,56.17
2023-04-06T13:03:42.907Z,53.27
2023-04-06T13:06:11.466Z,47.37
2023-04-06T13:08:40.180Z,36.13
2023-04-06T13:11:09.752Z,43.37
2023-04-06T13:13:38.567Z,50.03
2023-04-06T13:16:09.502Z,58.43
2023-04-06T13:18:40.102Z,74.80
2023-04-06T13:21:08.921Z,69.90
2023-04-06T13:23:37.629Z,74.57
2023-04-06T13:26:06.782Z,102.20
2023-04-06T13:28:35.517Z,89.93
2023-04-06T13:31:04.373Z,96.73
2023-04-06T13:33:33.997Z,66.40
2023-04-06T13:36:02.327Z,79.27
2023-04-06T13:38:30.887Z,61.40
2023-04-06T13:40:59.138Z,48.43
2023-04-06T13:43:28.134Z,58.00
2023-04-06T13:45:57.076Z,50.43
2023-04-06T13:48:26.534Z,52.33
2023-04-06T13:50:56.180Z,79.83
2023-04-06T13:53:24.333Z,59.07
2023-04-06T13:55:56.152Z,66.43
2023-04-06T13:58:24.511Z,73.07
2023-04-06T14:00:53.659Z,83.30
2023-04-06T14:03:22.839Z,67.77
2023-04-06T14:05:51.231Z,74.00
2023-04-06T14:08:20.831Z,77.80
2023-04-06T14:10:49.015Z,88.30
2023-04-06T14:13:17.966Z,89.17
2023-04-06T14:15:46.201Z,97.67
2023-04-06T14:18:14.314Z,93.33
2023-04-06T14:20:42.647Z,100.90
2023-04-06T14:23:11.644Z,105.53
2023-04-06T14:25:41.370Z,87.07
2023-04-06T14:28:09.564Z,103.00
2023-04-06T14:30:37.776Z,110.30
2023-04-06T14:33:06.693Z,121.57
2023-04-06T14:35:34.877Z,115.90
2023-04-06T14:38:03.076Z,165.00
2023-04-06T14:40:31.280Z,145.23
2023-04-06T14:43:00.854Z,178.50
2023-04-06T14:45:29.009Z,158.37
2023-04-06T14:47:57.255Z,164.20
2023-04-06T14:50:25.397Z,146.03
2023-04-06T14:52:53.662Z,139.10
2023-04-06T14:55:21.872Z,148.97
2023-04-06T14:57:50.111Z,157.60
2023-04-06T15:00:20.317Z,146.23
2023-04-06T15:02:48.545Z,133.53
2023-04-06T15:05:17.129Z,131.33
2023-04-06T15:07:45.311Z,117.90
2023-04-06T15:10:13.789Z,134.33
2023-04-06T15:12:42.006Z,115.67
2023-04-06T15:15:10.610Z,133.07
2023-04-06T15:17:40.191Z,136.70
2023-04-06T15:20:08.802Z,159.77
2023-04-06T15:22:36.945Z,132.73
2023-04-06T15:25:05.394Z,129.60
2023-04-06T15:27:33.609Z,153.07
2023-04-06T15:30:01.774Z,153.20
2023-04-06T15:32:30.098Z,159.43
2023-04-06T15:35:00.596Z,158.53
2023-04-06T15:37:29.090Z,172.97
2023-04-06T15:39:58.212Z,161.50
2023-04-06T15:42:27.722Z,151.80
2023-04-06T15:44:55.850Z,164.47
2023-04-06T15:47:24.179Z,184.13
2023-04-06T15:49:52.407Z,152.67
2023-04-06T15:52:22.783Z,157.20
2023-04-06T15:54:51.414Z,156.00
2023-04-06T15:57:19.602Z,121.37
2023-04-06T15:59:48.213Z,174.53
2023-04-06T16:02:16.508Z,183.77
2023-04-06T16:04:44.851Z,173.93
2023-04-06T16:07:13.064Z,188.73
2023-04-06T16:09:43.423Z,202.47
2023-04-06T16:12:11.627Z,180.67
2023-04-06T16:14:39.862Z,167.50
2023-04-06T16:17:08.053Z,141.43
2023-04-06T16:19:36.201Z,160.43
2023-04-06T16:22:04.449Z,192.13
2023-04-06T16:24:32.728Z,223.07
2023-04-06T16:27:02.899Z,190.73
2023-04-06T16:29:31.778Z,203.07
2023-04-06T16:32:00.158Z,210.37
2023-04-06T16:34:32.366Z,211.93
2023-04-06T16:37:00.687Z,192.30
2023-04-06T16:39:28.916Z,204.37
2023-04-06T16:41:57.440Z,197.50
2023-04-06T16:44:27.246Z,192.83
2023-04-06T16:46:56.500Z,211.97
2023-04-06T16:49:24.795Z,231.40
2023-04-06T16:51:53.122Z,246.47
2023-04-06T16:54:21.315Z,238.17
2023-04-06T16:56:49.456Z,214.03
2023-04-06T16:59:17.665Z,179.37
2023-04-06T17:01:47.347Z,220.00
2023-04-06T17:04:15.771Z,211.53
2023-04-06T17:06:44.012Z,216.13
2023-04-06T17:09:12.246Z,228.67
2023-04-06T17:11:48.808Z,238.53
2023-04-06T17:14:17.203Z,207.77
2023-04-06T17:16:47.553Z,208.90
2023-04-06T17:19:15.804Z,217.37
2023-04-06T17:21:44.056Z,207.63
2023-04-06T17:24:12.226Z,152.70
2023-04-06T17:26:40.539Z,174.33
2023-04-06T17:29:08.781Z,188.97
2023-04-06T17:31:36.984Z,171.27
2023-04-06T17:34:06.551Z,199.93
2023-04-06T17:36:34.689Z,169.33
2023-04-06T17:39:03.308Z,148.77
2023-04-06T17:41:32.789Z,175.93
2023-04-06T17:44:01.243Z,146.83
2023-04-06T17:46:29.546Z,155.27
2023-04-06T17:48:57.787Z,185.83
2023-04-06T17:51:27.688Z,186.23
2023-04-06T17:53:55.844Z,248.70
2023-04-06T17:56:24.372Z,209.30
2023-04-06T17:58:52.561Z,286.57
2023-04-06T18:01:21.838Z,301.77
2023-04-06T18:03:50.312Z,289.83
2023-04-06T18:06:18.642Z,251.40
2023-04-06T18:08:48.367Z,260.30
2023-04-06T18:11:18.361Z,262.93
2023-04-06T18:13:46.648Z,223.20
2023-04-06T18:16:16.366Z,246.33
2023-04-06T18:18:44.683Z,250.97
2023-04-06T18:21:12.811Z,216.80
2023-04-06T18:23:41.098Z,205.87
2023-04-06T18:26:16.170Z,227.50
2023-04-06T18:28:44.405Z,190.17
2023-04-06T18:31:12.602Z,183.27
2023-04-06T18:33:40.844Z,213.93
2023-04-06T18:36:09.733Z,162.00
2023-04-06T18:38:39.268Z,195.03
2023-04-06T18:41:07.473Z,167.10
2023-04-06T18:43:37.451Z,139.57
2023-04-06T18:46:05.640Z,116.93
2023-04-06T18:48:33.805Z,134.93
2023-04-06T18:51:03.917Z,96.17
2023-04-06T18:53:32.093Z,104.07
2023-04-06T18:56:00.577Z,95.90
2023-04-06T18:58:28.931Z,90.10
2023-04-06T19:00:58.492Z,107.00
2023-04-06T19:03:27.601Z,89.13
2023-04-06T19:05:56.081Z,93.70
2023-04-06T19:08:24.295Z,80.83
2023-04-06T19:10:52.512Z,74.60
2023-04-06T19:13:20.636Z,81.40
2023-04-06T19:15:48.937Z,87.53
2023-04-06T19:18:18.455Z,74.10
2023-04-06T19:20:46.643Z,62.67
2023-04-06T19:23:14.808Z,56.47
2023-04-06T19:25:44.603Z,72.60
2023-04-06T19:28:14.626Z,63.37
2023-04-06T19:30:42.838Z,79.70
2023-04-06T19:33:11.010Z,80.67
2023-04-06T19:35:40.625Z,77.97
2023-04-06T19:38:08.785Z,92.97
2023-04-06T19:40:36.935Z,91.80
2023-04-06T19:43:05.135Z,94.60
2023-04-06T19:45:33.328Z,88.53
2023-04-06T19:48:01.497Z,103.27
2023-04-06T19:50:29.718Z,100.60
2023-04-06T19:52:59.697Z,86.93
2023-04-06T19:55:28.034Z,79.63
2023-04-06T19:57:56.175Z,87.63
2023-04-06T20:00:24.548Z,76.33
2023-04-06T20:02:52.884Z,82.30
2023-04-06T20:05:21.250Z,87.90
2023-04-06T20:07:50.037Z,88.53
2023-04-06T20:10:19.886Z,99.07
2023-04-06T20:12:48.709Z,83.70
2023-04-06T20:15:16.939Z,69.80
2023-04-06T20:17:45.479Z,77.67
2023-04-06T20:20:13.669Z,84.50
2023-04-06T20:22:42.780Z,94.33
2023-04-06T20:25:11.419Z,100.23
2023-04-06T20:27:41.053Z,116.03
2023-04-06T20:30:09.890Z,135.27
2023-04-06T20:32:38.566Z,95.30
2023-04-06T20:35:07.234Z,102.93
2023-04-06T20:37:37.190Z,113.23
2023-04-06T20:40:05.689Z,99.50
2023-04-06T20:42:34.330Z,92.67
2023-04-06T20:45:04.119Z,104.20
2023-04-06T20:47:32.355Z,77.40
2023-04-06T20:50:00.839Z,56.80
2023-04-06T20:52:29.049Z,75.03
2023-04-06T20:54:57.399Z,72.73
2023-04-06T20:57:27.611Z,90.80
2023-04-06T20:59:55.792Z,72.03
2023-04-06T21:02:25.725Z,89.97
2023-04-06T21:04:54.072Z,66.10
2023-04-06T21:07:22.283Z,82.10
2023-04-06T21:09:50.676Z,108.67
2023-04-06T21:12:18.865Z,94.03
2023-04-06T21:14:47.238Z,98.63
2023-04-06T21:17:15.688Z,109.17
2023-04-06T21:19:45.369Z,101.70
2023-04-06T21:22:13.523Z,127.10
2023-04-06T21:24:41.807Z,107.63
2023-04-06T21:27:12.928Z,97.47
2023-04-06T21:29:41.150Z,90.30
2023-04-06T21:32:09.363Z,99.97
2023-04-06T21:34:37.567Z,131.17
2023-04-06T21:37:07.356Z,108.17
2023-04-06T21:39:38.203Z,112.93
2023-04-06T21:42:06.558Z,118.43
2023-04-06T21:44:35.326Z,109.17
2023-04-06T21:47:03.589Z,124.53
2023-04-06T21:49:31.954Z,111.73
2023-04-06T21:52:00.159Z,107.83
2023-04-06T21:54:33.397Z,83.63
2023-04-06T21:57:01.623Z,111.20
2023-04-06T21:59:29.748Z,94.70
2023-04-06T22:01:58.293Z,85.60
2023-04-06T22:04:26.765Z,106.70
2023-04-06T22:06:55.300Z,71.93
2023-04-06T22:09:23.496Z,112.33
2023-04-06T22:11:53.035Z,119.37
2023-04-06T22:14:22.168Z,97.50
2023-04-06T22:16:50.631Z,100.77
2023-04-06T22:19:18.913Z,104.17
2023-04-06T22:21:47.124Z,91.63
2023-04-06T22:24:15.501Z,109.93
2023-04-06T22:26:43.712Z,125.60
2023-04-06T22:29:13.186Z,128.87
2023-04-06T22:31:41.416Z,61.20
2023-04-06T22:34:09.595Z,66.50
2023-04-06T22:36:37.776Z,87.37
2023-04-06T22:39:05.953Z,91.30
2023-04-06T22:41:34.077Z,75.40
2023-04-06T22:44:02.200Z,92.60
2023-04-06T22:46:32.840Z,71.07
2023-04-06T22:49:01.040Z,106.87
2023-04-06T22:51:29.267Z,129.63
2023-04-06T22:53:57.501Z,103.57
2023-04-06T22:56:25.730Z,93.37
2023-04-06T22:58:55.813Z,95.27
2023-04-06T23:01:24.053Z,124.40
2023-04-06T23:03:53.722Z,109.37
2023-04-06T23:06:21.957Z,101.33
2023-04-06T23:08:50.121Z,89.13
2023-04-06T23:11:18.406Z,77.53
2023-04-06T23:13:46.738Z,62.97
2023-04-06T23:16:15.055Z,83.10
2023-04-06T23:18:43.220Z,83.30
2023-04-06T23:21:12.697Z,81.93
2023-04-06T23:23:40.882Z,69.40
2023-04-06T23:26:09.089Z,62.00
2023-04-06T23:28:37.240Z,64.17
2023-04-06T23:31:05.600Z,60.27
2023-04-06T23:33:33.765Z,67.43
2023-04-06T23:36:01.975Z,66.87
2023-04-06T23:38:31.485Z,51.53
2023-04-06T23:40:59.657Z,47.83
2023-04-06T23:43:27.900Z,40.17
2023-04-06T23:45:56.803Z,32.53
2023-04-06T23:48:25.010Z,35.50
2023-04-06T23:50:53.545Z,39.20
2023-04-06T23:53:21.787Z,37.53
2023-04-06T23:55:51.421Z,31.83
2023-04-06T23:58:19.622Z,29.03
